Time;durP1;ratioP1;P1;durP2;ratioP2;P2;SDS_P1;SDS_P2;PMS_P1;PMS_P2;Temp;Humidity;BMP_temperature;BMP_pressure;BME280_temperature;BME280_humidity;BME280_pressure;Samples;Min_cycle;Max_cycle;Signal;HPM_P1;HPM_P2
2023/01/21 00:01:35;;;;;;;13.75;12.38;;;9.60;99.90;;;;;;5167973;28;20026;-73
2023/01/21 00:04:06;;;;;;;11.38;6.20;;;9.50;99.90;;;;;;5168042;28;20032;-73
2023/01/21 00:06:37;;;;;;;10.50;3.72;;;9.10;99.90;;;;;;5167606;28;20434;-73
2023/01/21 00:09:08;;;;;;;9.48;5.22;;;9.00;99.90;;;;;;5167683;28;20030;-73
2023/01/21 00:11:38;;;;;;;6.07;3.92;;;9.10;99.90;;;;;;5167815;28;20026;-73
2023/01/21 00:14:10;;;;;;;12.13;4.05;;;9.00;99.90;;;;;;5167770;28;20026;-72
2023/01/21 00:16:41;;;;;;;7.90;4.95;;;9.10;99.90;;;;;;5167738;28;20041;-73
2023/01/21 00:19:12;;;;;;;11.80;7.05;;;8.50;99.90;;;;;;5167664;28;20031;-73
2023/01/21 00:21:42;;;;;;;14.30;4.00;;;9.00;99.90;;;;;;5167703;28;20033;-73
2023/01/21 00:24:13;;;;;;;11.27;4.97;;;9.00;99.90;;;;;;5167590;28;20086;-73
2023/01/21 00:26:44;;;;;;;7.03;4.10;;;9.10;99.90;;;;;;5167464;28;20540;-73
2023/01/21 00:29:15;;;;;;;14.30;8.02;;;9.30;99.90;;;;;;5182578;28;20371;-73
2023/01/21 00:31:46;;;;;;;9.90;5.57;;;8.90;99.90;;;;;;5167492;28;20019;-73
2023/01/21 00:34:17;;;;;;;15.18;13.55;;;8.90;99.90;;;;;;5167324;28;20034;-73
2023/01/21 00:36:48;;;;;;;14.75;5.47;;;9.10;99.90;;;;;;5167243;28;20034;-73
2023/01/21 00:39:18;;;;;;;16.13;14.65;;;8.80;99.90;;;;;;5167356;28;20026;-73
2023/01/21 00:41:49;;;;;;;10.32;5.15;;;8.20;99.90;;;;;;5167362;28;20442;-73
2023/01/21 00:44:20;;;;;;;11.73;4.30;;;8.20;99.90;;;;;;5167406;28;20030;-73
2023/01/21 00:46:51;;;;;;;6.72;5.05;;;8.30;99.90;;;;;;5167257;28;20181;-73
2023/01/21 00:49:21;;;;;;;21.50;11.07;;;8.70;99.90;;;;;;5167244;28;20039;-73
2023/01/21 00:51:52;;;;;;;8.15;4.90;;;8.20;99.90;;;;;;5167140;28;20037;-73
2023/01/21 00:54:23;;;;;;;11.65;5.00;;;7.90;99.90;;;;;;5167130;28;20034;-73
2023/01/21 00:56:54;;;;;;;13.45;7.75;;;8.30;99.90;;;;;;5166682;28;20398;-73
2023/01/21 00:59:28;;;;;;;14.88;8.90;;;8.40;99.90;;;;;;5166978;28;20022;-74
2023/01/21 01:01:59;;;;;;;8.43;4.65;;;8.00;99.90;;;;;;5167016;28;20061;-73
2023/01/21 01:04:30;;;;;;;8.43;4.40;;;8.10;99.90;;;;;;5166687;28;20026;-73
2023/01/21 01:07:01;;;;;;;8.07;4.00;;;7.70;99.90;;;;;;5181509;28;20170;-73
2023/01/21 01:09:32;;;;;;;8.50;3.58;;;8.10;99.90;;;;;;5166573;28;20037;-73
2023/01/21 01:12:03;;;;;;;6.03;3.70;;;7.50;99.90;;;;;;5166612;28;20034;-73
2023/01/21 01:14:34;;;;;;;10.82;5.50;;;7.80;99.90;;;;;;5166602;28;20026;-73
2023/01/21 01:17:05;;;;;;;8.32;4.00;;;8.30;99.90;;;;;;5166646;28;20525;-73
2023/01/21 01:19:35;;;;;;;8.68;4.45;;;8.20;99.90;;;;;;5166871;28;20030;-72
2023/01/21 01:22:06;;;;;;;9.50;3.03;;;8.30;99.90;;;;;;5166393;28;20026;-73
2023/01/21 01:24:37;;;;;;;9.95;6.28;;;8.30;99.90;;;;;;5166526;28;20057;-73
2023/01/21 01:27:08;;;;;;;5.78;3.88;;;8.40;99.90;;;;;;5166387;28;20014;-73
2023/01/21 01:29:38;;;;;;;5.90;3.60;;;7.40;99.90;;;;;;5166438;28;20529;-73
2023/01/21 01:32:09;;;;;;;3.97;2.42;;;7.80;99.90;;;;;;5166479;28;20105;-73
2023/01/21 01:34:40;;;;;;;10.05;7.40;;;7.50;99.90;;;;;;5166285;28;20045;-73
2023/01/21 01:37:11;;;;;;;13.10;4.40;;;7.50;99.90;;;;;;5165994;28;20623;-73
2023/01/21 01:39:42;;;;;;;6.60;5.35;;;7.50;99.90;;;;;;5166197;28;20026;-73
2023/01/21 01:42:16;;;;;;;9.10;3.35;;;7.80;99.90;;;;;;5166151;28;20078;-73
2023/01/21 01:45:02;;;;;;;6.07;3.85;;;7.70;99.90;;;;;;5166127;28;20033;-73
2023/01/21 01:47:41;;;;;;;11.80;5.63;;;7.70;99.90;;;;;;5166304;28;20105;-73
2023/01/21 01:50:16;;;;;;;6.50;3.33;;;7.80;99.90;;;;;;5166137;28;20505;-73
2023/01/21 01:52:47;;;;;;;9.73;5.63;;;8.40;99.90;;;;;;5165887;28;20161;-73
2023/01/21 01:55:18;;;;;;;5.95;3.00;;;8.40;99.90;;;;;;5164685;28;20027;-72
2023/01/21 01:57:53;;;;;;;12.73;4.15;;;8.30;99.90;;;;;;5165963;28;20034;-73
2023/01/21 02:00:25;;;;;;;9.25;3.08;;;8.40;99.90;;;;;;5165921;28;20030;-72
2023/01/21 02:05:46;;;;;;;14.07;7.55;;;8.30;99.90;;;;;;5165900;28;20037;-72
2023/01/21 02:08:17;;;;;;;35.75;15.65;;;8.50;99.90;;;;;;5165635;28;20046;-73
2023/01/21 02:10:48;;;;;;;48.75;24.50;;;7.40;99.90;;;;;;5164197;28;20081;-73
2023/01/21 02:13:19;;;;;;;103.00;48.95;;;7.40;99.90;;;;;;5165679;28;20168;-73
2023/01/21 02:16:01;;;;;;;38.28;19.23;;;7.10;99.90;;;;;;5165421;28;20109;-73
2023/01/21 02:18:44;;;;;;;26.13;15.45;;;7.80;99.90;;;;;;5163802;28;20026;-73
2023/01/21 02:22:00;;;;;;;18.45;10.55;;;7.80;99.90;;;;;;5165414;28;20026;-73
2023/01/21 02:24:49;;;;;;;17.45;9.18;;;6.80;99.90;;;;;;5162028;28;20045;-73
2023/01/21 02:27:40;;;;;;;12.93;10.93;;;6.60;99.90;;;;;;5165430;28;20112;-73
2023/01/21 02:30:29;;;;;;;11.30;8.05;;;7.50;99.90;;;;;;5163957;28;20042;-73
2023/01/21 02:33:38;;;;;;;12.25;7.68;;;7.20;99.90;;;;;;5165148;28;20026;-73
2023/01/21 02:36:14;;;;;;;16.23;8.73;;;7.40;99.90;;;;;;5145164;28;20045;-73
2023/01/21 02:39:15;;;;;;;9.27;6.43;;;7.10;99.90;;;;;;5145262;28;20387;-73
2023/01/21 02:42:06;;;;;;;17.40;7.72;;;7.20;99.90;;;;;;5145294;28;20019;-73
2023/01/21 02:44:41;;;;;;;12.00;5.80;;;7.30;99.90;;;;;;5164277;28;20063;-73
2023/01/21 02:47:30;;;;;;;11.65;9.10;;;7.80;99.90;;;;;;5165177;28;20023;-73
2023/01/21 02:50:21;;;;;;;10.00;7.55;;;7.60;99.90;;;;;;5165101;28;20035;-73
2023/01/21 02:53:02;;;;;;;12.55;8.38;;;7.20;99.90;;;;;;5165070;28;20022;-73
2023/01/21 02:55:36;;;;;;;14.35;7.07;;;7.40;99.90;;;;;;5165095;28;20030;-72
2023/01/21 02:58:14;;;;;;;14.90;8.07;;;7.20;99.90;;;;;;5165151;28;20038;-73
2023/01/21 03:01:07;;;;;;;16.40;9.27;;;7.00;99.90;;;;;;5162025;28;20034;-73
2023/01/21 03:04:10;;;;;;;13.48;10.93;;;7.10;99.90;;;;;;5160134;28;20022;-73
2023/01/21 03:07:02;;;;;;;13.43;10.30;;;7.00;99.90;;;;;;5179986;28;20070;-73
2023/01/21 03:09:34;;;;;;;13.32;10.15;;;7.60;99.90;;;;;;5165375;28;20407;-73
2023/01/21 03:12:43;;;;;;;16.40;10.77;;;7.30;99.90;;;;;;5165055;28;21008;-73
2023/01/21 03:18:41;;;;;;;15.07;10.05;;;7.10;99.90;;;;;;5123004;29;20558;-73
2023/01/21 03:21:18;;;;;;;11.70;9.75;;;7.30;99.90;;;;;;5161684;28;20035;-73
2023/01/21 03:23:51;;;;;;;17.52;8.85;;;7.60;99.90;;;;;;5165012;28;20037;-72
2023/01/21 03:26:45;;;;;;;11.73;6.30;;;7.30;99.90;;;;;;5164951;28;20037;-73
2023/01/21 03:29:21;;;;;;;12.13;9.20;;;7.10;99.90;;;;;;5167693;28;20041;-73
2023/01/21 03:31:57;;;;;;;9.68;7.13;;;7.40;99.90;;;;;;5167492;28;20027;-73
2023/01/21 03:34:32;;;;;;;11.18;8.68;;;7.10;99.90;;;;;;5168632;28;20093;-73
2023/01/21 03:37:26;;;;;;;16.35;7.60;;;7.40;99.90;;;;;;5168281;28;20085;-73
2023/01/21 03:40:21;;;;;;;7.70;5.15;;;7.70;99.90;;;;;;5168515;28;20022;-73
2023/01/21 03:42:55;;;;;;;8.10;5.70;;;7.80;99.90;;;;;;5168304;28;20022;-73
2023/01/21 03:45:52;;;;;;;18.00;6.38;;;7.80;99.90;;;;;;5166998;28;20485;-73
2023/01/21 03:48:38;;;;;;;13.68;5.47;;;7.50;99.90;;;;;;5182933;28;20042;-73
2023/01/21 03:51:15;;;;;;;13.18;7.25;;;7.60;99.90;;;;;;5166997;28;20395;-73
2023/01/21 03:54:00;;;;;;;8.45;6.68;;;7.70;99.90;;;;;;5168238;28;20042;-73
2023/01/21 03:56:30;;;;;;;12.38;6.32;;;7.50;99.90;;;;;;5168171;28;20062;-73
2023/01/21 03:59:01;;;;;;;11.90;5.32;;;7.90;99.90;;;;;;5168069;28;20053;-73
2023/01/21 04:01:32;;;;;;;8.55;3.78;;;8.10;99.90;;;;;;5168036;28;20466;-73
2023/01/21 04:04:03;;;;;;;11.00;6.65;;;7.70;99.90;;;;;;5168143;28;20042;-73
2023/01/21 04:06:35;;;;;;;9.40;3.25;;;7.70;99.90;;;;;;5167606;28;20129;-73
2023/01/21 04:09:06;;;;;;;13.32;4.78;;;7.40;99.90;;;;;;5167895;28;20154;-73
2023/01/21 04:11:37;;;;;;;12.45;5.15;;;7.30;99.90;;;;;;5167980;28;20616;-73
2023/01/21 04:14:08;;;;;;;10.60;5.25;;;7.30;99.90;;;;;;5166796;28;20031;-73
2023/01/21 04:16:39;;;;;;;17.67;4.88;;;7.40;99.90;;;;;;5167893;28;20018;-73
2023/01/21 04:19:10;;;;;;;16.60;6.95;;;7.50;99.90;;;;;;5167763;28;20493;-73
2023/01/21 04:21:40;;;;;;;10.73;7.97;;;7.30;99.90;;;;;;5167770;28;20042;-73
2023/01/21 04:24:14;;;;;;;7.65;5.75;;;7.40;99.90;;;;;;5167702;28;20397;-73
2023/01/21 04:26:49;;;;;;;14.65;7.60;;;7.30;99.90;;;;;;5167545;28;20019;-73
2023/01/21 04:29:30;;;;;;;13.35;6.85;;;7.40;99.90;;;;;;5167679;28;20493;-73
2023/01/21 04:32:10;;;;;;;13.88;7.63;;;7.20;99.90;;;;;;5167438;28;20109;-74
2023/01/21 04:34:41;;;;;;;13.30;8.00;;;7.40;99.90;;;;;;5166092;28;20034;-73
2023/01/21 04:37:11;;;;;;;15.30;8.40;;;7.50;99.90;;;;;;5167128;28;20026;-73
2023/01/21 04:39:42;;;;;;;11.10;6.90;;;7.30;99.90;;;;;;5166809;28;20037;-73
2023/01/21 04:42:13;;;;;;;11.07;7.88;;;7.10;99.90;;;;;;5167306;28;20093;-73
2023/01/21 04:44:44;;;;;;;13.45;6.22;;;7.30;99.90;;;;;;5166107;28;20034;-73
2023/01/21 04:47:14;;;;;;;15.35;7.15;;;7.10;99.90;;;;;;5167148;28;20025;-73
2023/01/21 04:49:47;;;;;;;13.07;7.63;;;7.00;99.90;;;;;;5167270;28;20045;-72
2023/01/21 04:52:18;;;;;;;11.05;8.90;;;6.90;99.90;;;;;;5167242;28;20120;-73
2023/01/21 04:54:49;;;;;;;8.10;6.35;;;6.90;99.90;;;;;;5167678;28;20053;-72
2023/01/21 04:57:19;;;;;;;13.48;7.72;;;7.00;99.90;;;;;;5166033;28;20386;-73
2023/01/21 04:59:50;;;;;;;11.60;8.45;;;6.80;99.90;;;;;;5167177;28;20026;-73
2023/01/21 05:02:21;;;;;;;8.52;4.72;;;6.90;99.90;;;;;;5167103;28;20076;-73
2023/01/21 05:04:52;;;;;;;19.23;11.93;;;6.70;99.90;;;;;;5166869;28;20022;-73
2023/01/21 05:07:23;;;;;;;19.13;9.32;;;6.60;99.90;;;;;;5166441;28;20063;-73
2023/01/21 05:09:53;;;;;;;15.90;10.52;;;6.80;99.90;;;;;;5166846;28;20070;-73
2023/01/21 05:12:24;;;;;;;15.93;8.57;;;6.70;99.90;;;;;;5166612;28;20500;-73
2023/01/21 05:14:58;;;;;;;11.50;7.57;;;7.00;99.90;;;;;;5166708;28;20098;-72
2023/01/21 05:17:29;;;;;;;9.77;6.30;;;6.70;99.90;;;;;;5166608;28;20035;-73
2023/01/21 05:20:00;;;;;;;13.57;5.45;;;7.00;99.90;;;;;;5166686;28;20585;-73
2023/01/21 05:22:30;;;;;;;14.05;5.68;;;6.80;99.90;;;;;;5166543;28;20037;-72
2023/01/21 05:25:01;;;;;;;13.88;8.25;;;7.00;99.90;;;;;;5166441;28;20019;-73
2023/01/21 05:27:32;;;;;;;9.38;8.35;;;6.90;99.90;;;;;;5166534;28;20051;-73
2023/01/21 05:30:03;;;;;;;15.70;6.30;;;6.90;99.90;;;;;;5166612;28;20066;-72
2023/01/21 05:32:38;;;;;;;16.02;7.38;;;6.60;99.90;;;;;;5166796;28;20026;-73
2023/01/21 05:35:10;;;;;;;13.00;7.28;;;6.70;99.90;;;;;;5166131;28;20018;-73
2023/01/21 05:37:41;;;;;;;15.35;8.40;;;6.50;99.90;;;;;;5166133;28;20038;-73
2023/01/21 05:40:16;;;;;;;19.25;12.77;;;6.80;99.90;;;;;;5166182;28;20377;-73
2023/01/21 05:42:47;;;;;;;17.90;9.95;;;7.20;99.90;;;;;;5166143;28;20113;-73
2023/01/21 05:45:18;;;;;;;11.48;6.28;;;6.80;99.90;;;;;;5165988;28;20090;-73
2023/01/21 05:47:49;;;;;;;15.68;11.32;;;6.70;99.90;;;;;;5166008;28;20133;-73
2023/01/21 05:50:19;;;;;;;13.98;6.40;;;6.90;99.90;;;;;;5166353;28;20511;-73
2023/01/21 05:52:50;;;;;;;18.75;10.73;;;7.10;99.90;;;;;;5164919;28;20023;-73
2023/01/21 05:55:21;;;;;;;18.35;9.73;;;6.70;99.90;;;;;;5165951;28;20038;-72
2023/01/21 05:57:52;;;;;;;19.33;9.50;;;6.80;99.90;;;;;;5165932;28;20050;-73
2023/01/21 06:00:23;;;;;;;13.05;6.93;;;7.20;99.90;;;;;;5165836;28;20026;-73
2023/01/21 06:02:53;;;;;;;26.15;17.50;;;7.00;99.90;;;;;;5165784;28;20027;-73
2023/01/21 06:05:24;;;;;;;15.02;10.80;;;6.80;99.90;;;;;;5165625;28;20489;-72
2023/01/21 06:07:55;;;;;;;13.50;8.68;;;7.00;99.90;;;;;;5165429;28;20069;-73
2023/01/21 06:10:26;;;;;;;12.30;7.55;;;7.10;99.90;;;;;;5165588;28;20038;-73
2023/01/21 06:12:57;;;;;;;8.25;6.97;;;7.50;99.90;;;;;;5165577;28;20027;-73
2023/01/21 06:15:27;;;;;;;17.85;7.20;;;7.80;99.90;;;;;;5165620;28;20474;-73
2023/01/21 06:18:01;;;;;;;12.82;6.60;;;7.80;99.90;;;;;;5165531;28;20018;-73
2023/01/21 06:20:32;;;;;;;57.08;23.05;;;8.10;99.90;;;;;;5165409;28;20030;-73
2023/01/21 06:23:03;;;;;;;36.20;21.77;;;8.20;99.90;;;;;;5165396;28;20026;-73
2023/01/21 06:25:34;;;;;;;11.38;6.90;;;8.00;99.90;;;;;;5165318;28;20049;-73
2023/01/21 06:28:04;;;;;;;15.05;6.40;;;8.30;99.90;;;;;;5165354;28;20121;-73
2023/01/21 06:30:36;;;;;;;10.93;5.60;;;8.40;99.90;;;;;;5165249;28;20045;-73
2023/01/21 06:33:06;;;;;;;9.60;5.15;;;8.50;99.90;;;;;;5165329;28;20057;-73
2023/01/21 06:35:37;;;;;;;20.35;8.93;;;8.60;99.90;;;;;;5165323;28;20026;-72
2023/01/21 06:38:08;;;;;;;15.50;8.27;;;8.60;99.90;;;;;;5165294;28;20036;-73
2023/01/21 06:40:39;;;;;;;24.52;14.85;;;8.80;99.90;;;;;;5180567;28;20061;-73
2023/01/21 06:43:10;;;;;;;18.98;14.43;;;9.10;99.90;;;;;;5165332;28;20034;-73
2023/01/21 06:45:40;;;;;;;19.73;9.82;;;9.30;99.90;;;;;;5165239;28;20097;-73
2023/01/21 06:48:11;;;;;;;22.05;19.98;;;9.40;99.90;;;;;;5180264;28;20034;-73
2023/01/21 06:50:42;;;;;;;21.25;19.55;;;9.40;99.90;;;;;;5165223;28;20068;-73
2023/01/21 06:53:13;;;;;;;21.02;19.33;;;9.40;99.90;;;;;;5163926;28;20450;-73
2023/01/21 06:55:46;;;;;;;21.00;18.98;;;9.10;99.90;;;;;;5165023;28;20097;-73
2023/01/21 06:58:17;;;;;;;16.52;14.60;;;9.80;99.90;;;;;;5165039;28;20023;-73
2023/01/21 07:00:47;;;;;;;19.92;15.73;;;9.80;99.90;;;;;;5165139;28;20037;-72
2023/01/21 07:03:18;;;;;;;19.88;17.83;;;10.10;99.90;;;;;;5163616;28;20038;-73
2023/01/21 07:05:49;;;;;;;16.48;14.38;;;9.80;99.90;;;;;;5160764;28;20567;-73
2023/01/21 07:08:20;;;;;;;19.88;18.35;;;10.10;99.90;;;;;;5148835;28;20182;-73
2023/01/21 07:10:50;;;;;;;22.15;17.77;;;10.40;99.90;;;;;;5148852;28;20529;-73
2023/01/21 07:13:22;;;;;;;15.25;13.93;;;10.40;99.90;;;;;;5148817;28;20049;-73
2023/01/21 07:16:00;;;;;;;12.90;8.05;;;9.70;99.90;;;;;;5148764;28;20062;-73
2023/01/21 07:18:31;;;;;;;15.02;13.75;;;10.70;99.90;;;;;;5148748;28;20038;-73
2023/01/21 07:21:02;;;;;;;17.95;12.43;;;10.90;99.90;;;;;;5150491;28;20101;-72
2023/01/21 07:23:33;;;;;;;20.10;18.15;;;11.80;99.90;;;;;;5168726;28;20036;-73
2023/01/21 07:26:04;;;;;;;11.45;9.68;;;12.00;99.90;;;;;;5167458;28;20026;-72
2023/01/21 07:28:35;;;;;;;13.77;4.88;;;12.30;99.90;;;;;;5166475;28;20049;-73
2023/01/21 07:31:06;;;;;;;19.23;17.30;;;12.60;99.90;;;;;;5166476;28;20034;-73
2023/01/21 07:33:36;;;;;;;31.55;29.02;;;12.30;99.90;;;;;;5167378;28;20054;-73
2023/01/21 07:36:07;;;;;;;20.80;18.08;;;12.60;99.90;;;;;;5167181;28;20044;-73
2023/01/21 07:38:38;;;;;;;38.08;34.75;;;12.60;99.90;;;;;;5168009;28;20026;-73
2023/01/21 07:41:09;;;;;;;27.27;20.77;;;12.70;99.90;;;;;;5168056;28;20035;-73
2023/01/21 07:43:40;;;;;;;20.08;18.38;;;12.50;99.90;;;;;;5167514;28;20598;-72
2023/01/21 07:46:10;;;;;;;105.32;98.70;;;12.70;99.90;;;;;;5183176;28;20366;-73
2023/01/21 07:48:41;;;;;;;142.48;134.15;;;12.70;99.90;;;;;;5160017;28;20031;-73
2023/01/21 07:51:12;;;;;;;149.32;140.57;;;13.20;99.90;;;;;;5163954;28;20532;-73
2023/01/21 07:53:43;;;;;;;127.53;120.25;;;13.50;99.90;;;;;;5181951;28;20049;-72
2023/01/21 07:56:15;;;;;;;11.43;10.35;;;13.80;99.90;;;;;;5167346;28;20470;-74
2023/01/21 07:58:46;;;;;;;12.88;10.65;;;13.90;99.90;;;;;;5167034;28;20023;-73
2023/01/21 08:01:17;;;;;;;9.43;8.70;;;14.00;99.90;;;;;;5167972;28;20474;-73
2023/01/21 08:03:48;;;;;;;9.90;8.93;;;14.20;99.90;;;;;;5168325;28;20019;-73
2023/01/21 08:06:18;;;;;;;13.00;12.00;;;14.40;99.90;;;;;;5167639;28;20053;-73
2023/01/21 08:08:49;;;;;;;8.27;7.43;;;14.50;99.90;;;;;;5167902;28;20062;-73
2023/01/21 08:11:20;;;;;;;9.60;5.18;;;14.40;99.90;;;;;;5167996;28;20034;-74
2023/01/21 08:13:51;;;;;;;69.50;65.22;;;14.30;99.90;;;;;;5167323;28;20032;-72
2023/01/21 08:16:22;;;;;;;93.75;88.35;;;14.50;99.90;;;;;;5166386;28;20034;-71
2023/01/21 08:18:53;;;;;;;9.15;6.60;;;14.10;99.90;;;;;;5167032;28;20073;-72
2023/01/21 08:21:24;;;;;;;8.23;7.43;;;14.20;99.90;;;;;;5167737;28;20030;-69
2023/01/21 08:23:55;;;;;;;10.88;6.80;;;14.30;99.90;;;;;;5167568;28;20015;-70
2023/01/21 08:26:25;;;;;;;8.43;7.60;;;14.50;99.90;;;;;;5167437;28;20130;-69
2023/01/21 08:28:56;;;;;;;7.80;6.47;;;14.60;99.90;;;;;;5167306;28;20474;-69
2023/01/21 08:31:27;;;;;;;9.68;7.75;;;14.50;99.90;;;;;;5167415;28;20030;-70
2023/01/21 08:33:58;;;;;;;9.77;9.00;;;14.60;99.90;;;;;;5167468;28;20402;-68
2023/01/21 08:36:29;;;;;;;6.72;6.20;;;14.60;99.90;;;;;;5167348;28;20030;-72
2023/01/21 08:39:04;;;;;;;8.57;6.85;;;14.50;99.90;;;;;;5166514;28;20042;-70
2023/01/21 08:41:35;;;;;;;9.48;8.18;;;14.50;99.90;;;;;;5167601;28;20513;-69
2023/01/21 08:44:07;;;;;;;7.13;3.78;;;14.60;99.90;;;;;;5167412;28;20030;-70
2023/01/21 08:46:37;;;;;;;7.70;7.00;;;14.50;99.90;;;;;;5167293;28;20027;-69
2023/01/21 08:49:08;;;;;;;5.38;4.25;;;14.50;99.90;;;;;;5167433;28;20046;-69
2023/01/21 08:51:40;;;;;;;6.65;6.03;;;14.50;99.90;;;;;;5167292;28;20030;-70
2023/01/21 08:54:11;;;;;;;8.73;7.57;;;14.40;99.90;;;;;;5165864;28;20049;-71
2023/01/21 08:56:41;;;;;;;12.15;5.50;;;14.70;99.90;;;;;;5167092;28;20062;-71
2023/01/21 08:59:12;;;;;;;9.00;4.78;;;14.50;99.90;;;;;;5167102;28;20025;-71
2023/01/21 09:01:43;;;;;;;10.27;4.88;;;14.60;99.90;;;;;;5167044;28;20113;-72
2023/01/21 09:04:14;;;;;;;8.38;4.90;;;14.40;99.90;;;;;;5166944;28;20464;-71
2023/01/21 09:06:45;;;;;;;6.43;5.20;;;14.60;99.90;;;;;;5166317;28;20470;-71
2023/01/21 09:09:15;;;;;;;6.72;5.82;;;14.50;99.90;;;;;;5166639;28;20055;-70
2023/01/21 09:11:46;;;;;;;9.18;8.35;;;14.40;99.90;;;;;;5166637;28;20378;-70
2023/01/21 09:14:18;;;;;;;6.45;5.95;;;14.50;99.90;;;;;;5166813;28;20022;-70
2023/01/21 09:16:49;;;;;;;11.57;10.73;;;14.80;99.90;;;;;;5166677;28;20026;-71
2023/01/21 09:19:21;;;;;;;16.10;14.93;;;15.10;99.90;;;;;;5166686;28;20054;-71
2023/01/21 09:21:54;;;;;;;14.55;13.18;;;15.10;99.90;;;;;;5165427;28;20034;-70
2023/01/21 09:24:25;;;;;;;13.93;12.45;;;15.10;99.90;;;;;;5166326;28;20042;-70
2023/01/21 09:26:55;;;;;;;15.00;13.95;;;15.10;99.90;;;;;;5166001;28;20034;-69
2023/01/21 09:29:27;;;;;;;15.45;14.32;;;15.30;99.90;;;;;;5166352;28;20026;-70
2023/01/21 09:32:04;;;;;;;16.48;15.25;;;15.20;99.90;;;;;;5166121;28;20463;-70
2023/01/21 09:34:35;;;;;;;18.17;16.92;;;15.00;99.90;;;;;;5165513;28;20037;-71
2023/01/21 09:37:07;;;;;;;16.63;15.45;;;14.90;99.90;;;;;;5166026;28;20038;-72
2023/01/21 09:39:38;;;;;;;15.73;14.73;;;14.80;99.90;;;;;;5166434;28;20502;-72
2023/01/21 09:42:19;;;;;;;38.35;36.03;;;14.90;99.90;;;;;;5166195;28;20031;-76
2023/01/21 09:44:53;;;;;;;16.13;14.55;;;14.90;99.90;;;;;;5181296;28;20486;-72
2023/01/21 09:47:32;;;;;;;14.40;13.05;;;14.90;99.90;;;;;;5162328;28;20027;-69
2023/01/21 09:50:15;;;;;;;138.57;130.98;;;14.90;99.90;;;;;;5145830;28;20109;-71
2023/01/21 09:52:50;;;;;;;163.32;154.30;;;14.80;99.90;;;;;;5145779;28;20014;-75
2023/01/21 09:55:32;;;;;;;201.52;190.80;;;15.00;99.90;;;;;;5146010;28;20031;-72
2023/01/21 09:58:24;;;;;;;150.50;142.55;;;15.00;99.90;;;;;;5145719;28;20355;-68
2023/01/21 10:00:55;;;;;;;86.95;81.97;;;15.60;99.90;;;;;;5145694;28;20026;-70
2023/01/21 10:03:25;;;;;;;19.98;18.60;;;15.90;99.90;;;;;;5158161;28;20437;-73
2023/01/21 10:06:18;;;;;;;43.22;40.78;;;16.20;99.90;;;;;;5165201;28;20042;-70
2023/01/21 10:09:19;;;;;;;11.38;10.48;;;16.10;99.90;;;;;;5165593;28;20477;-72
2023/01/21 10:12:09;;;;;;;11.80;10.95;;;16.30;99.90;;;;;;5180525;28;20462;-72
2023/01/21 10:15:13;;;;;;;22.20;20.70;;;15.90;99.90;;;;;;5165532;28;20454;-69
2023/01/21 10:17:50;;;;;;;20.08;18.33;;;15.90;99.90;;;;;;5180422;28;20761;-70
2023/01/21 10:20:24;;;;;;;17.75;16.45;;;15.80;99.90;;;;;;5159085;28;20026;-71
2023/01/21 10:23:22;;;;;;;11.38;10.55;;;15.80;99.90;;;;;;5145274;28;20073;-70
2023/01/21 10:25:55;;;;;;;76.60;72.40;;;16.20;99.90;;;;;;5142334;28;20039;-70
2023/01/21 10:28:31;;;;;;;87.68;82.75;;;15.90;99.90;;;;;;5145013;28;20088;-72
2023/01/21 10:31:29;;;;;;;131.98;124.63;;;16.40;99.90;;;;;;5145073;28;20027;-69
2023/01/21 10:33:59;;;;;;;22.15;20.45;;;16.30;99.90;;;;;;5142096;28;20047;-70
2023/01/21 10:36:49;;;;;;;28.90;27.15;;;16.20;99.90;;;;;;5159728;28;20033;-72
2023/01/21 10:39:59;;;;;;;21.45;20.05;;;16.20;99.90;;;;;;5144637;28;20074;-70
2023/01/21 10:42:33;;;;;;;18.88;17.45;;;16.00;99.90;;;;;;5145287;28;20487;-70
2023/01/21 10:45:19;;;;;;;18.98;17.60;;;15.70;99.90;;;;;;5145067;28;20853;-72
2023/01/21 10:48:16;;;;;;;11.25;10.18;;;15.90;99.90;;;;;;5145088;28;20427;-69
2023/01/21 10:51:10;;;;;;;43.80;41.15;;;15.60;99.90;;;;;;5144874;28;20427;-70
2023/01/21 10:53:56;;;;;;;97.00;91.85;;;15.80;99.90;;;;;;5145117;28;20023;-71
2023/01/21 10:56:45;;;;;;;89.35;84.28;;;15.70;99.90;;;;;;5145169;28;20039;-70
2023/01/21 10:59:21;;;;;;;44.30;41.85;;;15.60;99.90;;;;;;5145039;28;20125;-71
2023/01/21 11:02:31;;;;;;;202.18;191.00;;;15.40;99.90;;;;;;5145056;28;20062;-70
2023/01/21 11:05:04;;;;;;;405.25;383.52;;;15.10;99.90;;;;;;5134020;28;20035;-72
2023/01/21 11:07:39;;;;;;;147.85;139.88;;;15.80;99.90;;;;;;5144559;28;20047;-71
2023/01/21 11:10:19;;;;;;;65.55;61.47;;;16.40;99.90;;;;;;5144885;28;20117;-71
2023/01/21 11:12:52;;;;;;;8.73;6.05;;;17.10;99.90;;;;;;5144960;28;20663;-72
2023/01/21 11:15:23;;;;;;;14.52;13.38;;;16.20;99.90;;;;;;5144718;28;20114;-73
2023/01/21 11:17:55;;;;;;;11.23;10.35;;;17.10;99.90;;;;;;5144922;28;20019;-72
2023/01/21 11:20:34;;;;;;;8.52;7.90;;;17.30;99.90;;;;;;5144938;28;20109;-73
2023/01/21 11:23:38;;;;;;;7.68;7.07;;;17.50;99.90;;;;;;5144937;28;20101;-73
2023/01/21 11:26:23;;;;;;;20.65;19.30;;;18.10;99.90;;;;;;5144638;28;20460;-73
2023/01/21 11:29:08;;;;;;;14.35;13.25;;;17.50;99.90;;;;;;5144667;28;20043;-72
2023/01/21 11:31:40;;;;;;;35.47;33.35;;;16.70;99.90;;;;;;5143547;28;20027;-72
2023/01/21 11:34:22;;;;;;;7.88;6.78;;;17.00;99.90;;;;;;5144658;28;20154;-72
2023/01/21 11:37:28;;;;;;;6.18;2.95;;;17.30;99.90;;;;;;5144505;28;20390;-72
2023/01/21 11:40:22;;;;;;;12.02;10.85;;;17.30;99.90;;;;;;5144535;28;20027;-71
2023/01/21 11:42:55;;;;;;;12.68;11.63;;;17.40;99.90;;;;;;5144556;28;20074;-71
2023/01/21 11:45:35;;;;;;;13.05;12.20;;;17.50;99.90;;;;;;5151361;28;20022;-73
2023/01/21 11:48:24;;;;;;;6.60;2.72;;;17.70;99.90;;;;;;5164505;28;20093;-74
2023/01/21 11:51:07;;;;;;;5.25;2.95;;;18.30;99.90;;;;;;5168228;28;20035;-73
2023/01/21 11:53:39;;;;;;;11.30;10.55;;;17.40;99.90;;;;;;5167284;28;20034;-73
2023/01/21 11:56:11;;;;;;;10.40;9.63;;;17.80;99.90;;;;;;5166722;28;20547;-72
2023/01/21 11:58:42;;;;;;;5.97;3.30;;;17.50;99.90;;;;;;5168110;28;20025;-69
2023/01/21 12:01:21;;;;;;;8.30;7.55;;;17.20;99.90;;;;;;5167988;28;20474;-70
2023/01/21 12:03:55;;;;;;;14.68;13.07;;;17.10;99.90;;;;;;5168152;28;20026;-71
2023/01/21 12:06:31;;;;;;;7.55;4.10;;;17.00;99.90;;;;;;5167395;28;20038;-71
2023/01/21 12:09:06;;;;;;;4.40;2.90;;;17.00;99.90;;;;;;5167448;28;20057;-73
2023/01/21 12:11:38;;;;;;;8.25;4.65;;;17.00;99.90;;;;;;5167478;28;20026;-76
2023/01/21 12:14:20;;;;;;;8.43;7.65;;;17.40;99.90;;;;;;5167998;28;20034;-73
2023/01/21 12:17:47;;;;;;;10.38;4.85;;;17.10;99.90;;;;;;5167873;28;20058;-71
2023/01/21 12:20:30;;;;;;;21.17;19.38;;;17.10;99.90;;;;;;5159420;28;20035;-71
2023/01/21 12:23:23;;;;;;;33.92;31.67;;;17.10;99.90;;;;;;5167731;28;20022;-71
2023/01/21 12:26:12;;;;;;;37.38;35.10;;;17.80;99.90;;;;;;5167668;28;20142;-70
2023/01/21 12:28:56;;;;;;;25.30;23.27;;;17.20;99.90;;;;;;5167759;28;20109;-70
2023/01/21 12:31:31;;;;;;;9.25;8.30;;;18.10;99.90;;;;;;5167589;28;20092;-71
2023/01/21 12:34:09;;;;;;;9.23;8.60;;;18.30;99.90;;;;;;5167452;28;20025;-71
2023/01/21 12:36:51;;;;;;;5.95;5.35;;;18.30;99.90;;;;;;5167276;28;20042;-71
2023/01/21 12:39:35;;;;;;;5.63;3.92;;;18.50;99.90;;;;;;5166116;28;20035;-71
2023/01/21 12:42:18;;;;;;;5.85;2.97;;;17.90;99.90;;;;;;5166011;28;20374;-72
2023/01/21 12:44:52;;;;;;;9.13;2.67;;;17.60;99.90;;;;;;5167347;28;20109;-70
2023/01/21 12:47:41;;;;;;;8.35;7.18;;;17.70;99.90;;;;;;5167171;28;20080;-70
2023/01/21 12:50:26;;;;;;;9.10;5.20;;;17.30;99.90;;;;;;5167203;28;20129;-73
2023/01/21 12:53:28;;;;;;;29.73;27.55;;;17.10;99.90;;;;;;5167161;28;20286;-73
2023/01/21 12:56:20;;;;;;;31.20;29.00;;;17.50;99.90;;;;;;5166967;28;20084;-75
2023/01/21 12:58:58;;;;;;;15.40;13.82;;;18.30;99.90;;;;;;5166871;28;20026;-71
2023/01/21 13:01:42;;;;;;;10.65;6.60;;;18.20;99.90;;;;;;5166473;28;20034;-71
2023/01/21 13:04:45;;;;;;;39.63;37.00;;;17.80;99.90;;;;;;5166925;28;20459;-71
2023/01/21 13:07:36;;;;;;;12.70;11.82;;;17.50;99.90;;;;;;5166552;28;20050;-71
2023/01/21 13:10:37;;;;;;;22.95;21.40;;;17.60;99.90;;;;;;5165431;28;20085;-70
2023/01/21 13:13:22;;;;;;;35.97;33.33;;;17.70;99.90;;;;;;5166537;28;20034;-70
2023/01/21 13:15:59;;;;;;;21.48;20.02;;;17.70;99.90;;;;;;5166591;28;20018;-70
2023/01/21 13:18:41;;;;;;;7.40;2.67;;;17.90;99.90;;;;;;5166568;28;20034;-71
2023/01/21 13:21:30;;;;;;;23.70;22.10;;;17.80;99.90;;;;;;5166678;28;20414;-71
2023/01/21 13:24:10;;;;;;;4.85;3.80;;;18.50;99.90;;;;;;5166517;28;20073;-68
2023/01/21 13:26:55;;;;;;;17.70;15.88;;;18.70;99.90;;;;;;5166564;28;20031;-71
2023/01/21 13:29:43;;;;;;;15.55;14.30;;;19.40;99.30;;;;;;5166579;28;20039;-70
2023/01/21 13:32:33;;;;;;;11.73;10.70;;;18.80;99.90;;;;;;5166729;28;20018;-71
2023/01/21 13:35:17;;;;;;;13.80;12.57;;;18.10;99.90;;;;;;5166719;28;20391;-70